Skip Navigation Links Skip Navigation Links

Current Weather

Westchester County, White Plains, N.Y.

For information only: do not use for flight planning or navigation.
Latest weather
Observation time Thursday, November 14, 2019 7:56 PM EST
Local time Thursday, November 14, 2019 8:09 PM EST
Flight conditions Visual Meteorological Conditions
Winds
Wind direction West (260°)
Wind speed 3 mph
Visibility 10 mi.
Sky condition
Ceiling unlimited
Sky clear
Temperature 40°F
Dewpoint 22°F
Altimeter 30.27 in.Hg
Derived measurements
Relative humidity 48%
Wind chill 38°F
Density altitude -1178 ft.
Sea-level pressure 30.29 in.Hg
Remarks
Automated weather observing station with precipitation discriminator.
METAR KHPN 150056Z 26003KT 10SM CLR 04/M06 A3027 RMK AO2 SLP259 T00441056

Settings

Location code

InnerDrive.Weather 4.0.6770.0 Release CLR 4.0.30319.42000
Copyright ©2018 Inner Drive Technology. All rights reserved. Portions Copyright ©1986-2018 David Braverman.

Find weather

Site navigation


Skip Navigation Links

Place info

Page info

PayPal - The safer, easier way to pay online!

Return home.

Copyright ©2019 Inner Drive Technology. Purveyors of fine, hand-crafted computer software. Page printed 2019-11-15T01:09:30 UTC.